createdAt,value
2022-08-18T00:02:00.657Z,14.90
2022-08-18T00:04:35.529Z,13.65
2022-08-18T00:07:09.731Z,15.50
2022-08-18T00:09:39.050Z,15.18
2022-08-18T00:12:20.630Z,14.32
2022-08-18T00:14:48.385Z,15.50
2022-08-18T00:17:16.140Z,15.07
2022-08-18T00:19:45.944Z,14.90
2022-08-18T00:22:19.030Z,16.60
2022-08-18T00:24:55.594Z,15.50
2022-08-18T00:27:29.339Z,16.30
2022-08-18T00:30:00.367Z,15.32
2022-08-18T00:32:33.845Z,16.02
2022-08-18T00:35:18.429Z,15.70
2022-08-18T00:37:45.816Z,15.48
2022-08-18T00:40:18.861Z,15.52
2022-08-18T00:42:52.245Z,14.90
2022-08-18T00:45:25.361Z,15.60
2022-08-18T00:47:52.748Z,14.98
2022-08-18T00:50:35.249Z,16.17
2022-08-18T00:53:27.588Z,15.88
2022-08-18T00:55:58.087Z,15.90
2022-08-18T00:59:01.594Z,17.17
2022-08-18T01:04:26.723Z,17.30
2022-08-18T01:07:00.636Z,18.75
2022-08-18T01:09:28.375Z,18.23
2022-08-18T01:11:56.453Z,18.65
2022-08-18T01:14:24.073Z,18.70
2022-08-18T01:17:10.012Z,19.65
2022-08-18T01:19:56.603Z,20.80
2022-08-18T01:22:30.438Z,22.38
2022-08-18T01:25:18.787Z,21.45
2022-08-18T01:27:46.149Z,21.27
2022-08-18T01:30:17.422Z,21.88
2022-08-18T01:32:46.066Z,23.00
2022-08-18T01:35:16.189Z,22.92
2022-08-18T01:37:43.303Z,23.92
2022-08-18T01:41:23.888Z,23.65
2022-08-18T01:43:03.713Z,23.90
2022-08-18T01:45:33.520Z,24.77
2022-08-18T01:48:00.975Z,26.05
2022-08-18T01:50:28.136Z,26.98
2022-08-18T01:52:55.085Z,27.70
2022-08-18T01:55:22.349Z,28.08
2022-08-18T01:57:49.597Z,25.67
2022-08-18T02:00:19.216Z,27.48
2022-08-18T02:02:47.590Z,27.77
2022-08-18T02:05:37.361Z,28.35
2022-08-18T02:08:05.980Z,30.02
2022-08-18T02:10:34.029Z,28.38
2022-08-18T02:13:02.112Z,26.50
2022-08-18T02:15:29.103Z,29.08
2022-08-18T02:17:55.997Z,30.77
2022-08-18T02:20:23.592Z,30.70
2022-08-18T02:22:50.922Z,26.13
2022-08-18T02:25:18.602Z,25.73
2022-08-18T02:27:45.940Z,28.40
2022-08-18T02:30:16.520Z,28.80
2022-08-18T02:32:43.641Z,28.35
2022-08-18T02:35:12.243Z,29.70
2022-08-18T02:37:42.443Z,26.17
2022-08-18T02:40:15.483Z,31.88
2022-08-18T02:42:43.961Z,30.85
2022-08-18T02:45:11.275Z,31.90
2022-08-18T02:47:38.696Z,36.35
2022-08-18T02:50:06.972Z,36.58
2022-08-18T02:52:35.734Z,36.70
2022-08-18T02:55:04.279Z,34.33
2022-08-18T02:57:32.393Z,37.00
2022-08-18T03:00:00.612Z,35.97
2022-08-18T03:02:28.020Z,36.97
2022-08-18T03:04:54.911Z,38.28
2022-08-18T03:07:21.855Z,41.70
2022-08-18T03:09:48.854Z,41.88
2022-08-18T03:12:15.921Z,43.13
2022-08-18T03:14:43.567Z,42.30
2022-08-18T03:17:10.673Z,43.90
2022-08-18T03:19:38.190Z,38.50
2022-08-18T03:22:28.567Z,44.80
2022-08-18T03:24:56.097Z,43.60
2022-08-18T03:27:23.001Z,39.47
2022-08-18T03:29:51.119Z,45.92
2022-08-18T03:32:18.871Z,46.72
2022-08-18T03:34:45.901Z,44.70
2022-08-18T03:37:15.891Z,41.33
2022-08-18T03:39:42.984Z,43.03
2022-08-18T03:42:10.507Z,42.03
2022-08-18T03:44:37.417Z,39.65
2022-08-18T03:47:09.277Z,39.47
2022-08-18T03:49:37.306Z,39.97
2022-08-18T03:52:08.267Z,40.92
2022-08-18T03:54:35.420Z,38.45
2022-08-18T03:57:02.510Z,36.33
2022-08-18T03:59:31.929Z,44.67
2022-08-18T04:01:59.563Z,42.30
2022-08-18T04:04:28.670Z,40.83
2022-08-18T04:07:00.254Z,38.25
2022-08-18T04:09:30.814Z,35.72
2022-08-18T04:12:04.149Z,37.50
2022-08-18T04:14:33.810Z,39.33
2022-08-18T04:17:00.845Z,35.33
2022-08-18T04:19:28.293Z,36.30
2022-08-18T04:21:58.149Z,32.95
2022-08-18T04:24:32.010Z,35.17
2022-08-18T04:27:02.463Z,32.70
2022-08-18T04:29:29.863Z,33.67
2022-08-18T04:31:57.125Z,34.08
2022-08-18T04:34:24.122Z,30.45
2022-08-18T04:36:54.051Z,30.45
2022-08-18T04:39:23.176Z,31.10
2022-08-18T04:41:51.126Z,30.85
2022-08-18T04:44:18.694Z,28.10
2022-08-18T04:46:51.955Z,29.75
2022-08-18T04:49:22.418Z,26.75
2022-08-18T04:52:36.296Z,26.75
2022-08-18T04:54:58.140Z,27.73
2022-08-18T04:57:26.275Z,26.27
2022-08-18T04:59:54.289Z,27.65
2022-08-18T05:02:22.278Z,28.42
2022-08-18T05:04:49.353Z,27.30
2022-08-18T05:07:20.616Z,29.50
2022-08-18T05:09:47.768Z,31.23
2022-08-18T05:12:16.428Z,30.23
2022-08-18T05:14:45.368Z,30.02
2022-08-18T05:17:15.114Z,29.38
2022-08-18T05:19:44.618Z,29.35
2022-08-18T05:22:18.297Z,27.52
2022-08-18T05:24:45.976Z,29.60
2022-08-18T05:27:13.690Z,27.42
2022-08-18T05:29:41.871Z,27.15
2022-08-18T05:32:41.113Z,27.05
2022-08-18T05:35:15.824Z,25.50
2022-08-18T05:38:04.652Z,24.55
2022-08-18T05:40:31.989Z,24.80
2022-08-18T05:43:00.495Z,23.35
2022-08-18T05:45:27.786Z,24.13
2022-08-18T05:48:00.097Z,21.73
2022-08-18T05:50:29.686Z,20.20
2022-08-18T05:53:13.610Z,21.58
2022-08-18T05:56:16.846Z,22.92
2022-08-18T05:58:51.454Z,23.13
2022-08-18T06:01:30.301Z,23.05
2022-08-18T06:04:03.860Z,23.80
2022-08-18T06:06:34.001Z,23.15
2022-08-18T06:09:43.649Z,22.70
2022-08-18T06:12:21.386Z,21.92
2022-08-18T06:14:49.614Z,21.10
2022-08-18T06:17:53.828Z,19.60
2022-08-18T06:20:30.778Z,18.65
2022-08-18T06:23:19.203Z,16.38
2022-08-18T06:26:47.547Z,14.15
2022-08-18T06:29:38.254Z,15.30
2022-08-18T06:32:43.485Z,11.60
2022-08-18T06:35:52.969Z,9.07
2022-08-18T06:38:45.971Z,9.57
2022-08-18T06:44:21.711Z,7.72
2022-08-18T06:46:56.265Z,7.50
2022-08-18T06:49:51.474Z,7.50
2022-08-18T06:52:26.421Z,7.28
2022-08-18T06:54:57.653Z,6.40
2022-08-18T06:57:40.491Z,6.13
2022-08-18T07:00:27.907Z,6.53
2022-08-18T07:03:13.360Z,5.72
2022-08-18T07:06:11.470Z,5.55
2022-08-18T07:08:41.713Z,5.10
2022-08-18T07:11:14.469Z,5.80
2022-08-18T07:13:44.385Z,5.85
2022-08-18T07:16:47.362Z,5.93
2022-08-18T07:19:20.550Z,5.82
2022-08-18T07:22:08.583Z,5.68
2022-08-18T07:24:43.392Z,5.30
2022-08-18T07:27:17.230Z,4.80
2022-08-18T07:30:08.095Z,4.43
2022-08-18T07:32:48.861Z,4.70
2022-08-18T07:35:24.137Z,4.20
2022-08-18T07:38:18.647Z,4.10
2022-08-18T07:41:02.491Z,4.25
2022-08-18T07:44:00.777Z,3.80
2022-08-18T07:46:38.179Z,4.07
2022-08-18T07:49:07.079Z,3.85
2022-08-18T07:51:58.127Z,4.10
2022-08-18T07:54:50.423Z,3.80
2022-08-18T07:57:48.480Z,4.05
2022-08-18T08:00:47.797Z,3.65
2022-08-18T08:03:37.590Z,3.60
2022-08-18T08:06:14.034Z,3.92
2022-08-18T08:08:51.421Z,3.83
2022-08-18T08:11:58.052Z,4.18
2022-08-18T08:14:51.460Z,4.68
2022-08-18T08:17:23.882Z,4.70
2022-08-18T08:20:22.668Z,5.07
2022-08-18T08:23:24.055Z,4.88
2022-08-18T08:26:23.674Z,4.90
2022-08-18T08:29:03.650Z,5.63
2022-08-18T08:32:09.075Z,5.90
2022-08-18T08:34:54.335Z,6.20
2022-08-18T08:37:56.770Z,5.28
2022-08-18T08:40:53.077Z,5.35
2022-08-18T08:43:30.962Z,5.32
2022-08-18T08:46:22.439Z,5.60
2022-08-18T08:49:18.824Z,6.00
2022-08-18T08:51:57.979Z,5.82
2022-08-18T08:54:40.643Z,6.38
2022-08-18T08:59:39.687Z,4.10
2022-08-18T09:02:46.790Z,4.40
2022-08-18T09:05:26.822Z,4.03
2022-08-18T09:08:27.616Z,4.50
2022-08-18T09:11:27.372Z,4.40
2022-08-18T09:14:29.193Z,3.90
2022-08-18T09:17:15.023Z,4.55
2022-08-18T09:20:18.725Z,4.53
2022-08-18T09:23:05.058Z,4.47
2022-08-18T09:25:38.078Z,4.18
2022-08-18T09:28:38.991Z,4.85
2022-08-18T09:34:06.713Z,4.68
2022-08-18T09:37:04.959Z,4.20
2022-08-18T09:40:12.432Z,4.22
2022-08-18T09:42:52.863Z,4.10
2022-08-18T09:45:33.658Z,4.43
2022-08-18T09:48:20.630Z,4.00
2022-08-18T09:51:17.718Z,4.30
2022-08-18T09:53:52.642Z,4.13
2022-08-18T09:56:54.067Z,4.72
2022-08-18T09:59:35.044Z,4.68
2022-08-18T10:02:13.956Z,4.43
2022-08-18T10:04:50.893Z,4.85
2022-08-18T10:07:38.928Z,4.55
2022-08-18T10:11:00.503Z,4.90
2022-08-18T10:14:09.541Z,5.05
2022-08-18T10:17:23.885Z,4.72
2022-08-18T10:20:39.150Z,4.72
2022-08-18T10:23:09.528Z,4.10
2022-08-18T10:25:42.319Z,3.38
2022-08-18T10:28:51.881Z,3.85
2022-08-18T10:31:18.985Z,3.50
2022-08-18T10:34:01.039Z,3.40
2022-08-18T10:36:49.705Z,3.13
2022-08-18T10:39:26.922Z,3.40
2022-08-18T10:42:22.167Z,3.30
2022-08-18T10:45:01.293Z,3.40
2022-08-18T10:47:34.231Z,3.25
2022-08-18T10:50:09.901Z,3.13
2022-08-18T10:53:39.185Z,3.40
2022-08-18T10:56:26.908Z,3.30
2022-08-18T10:58:56.545Z,2.90
2022-08-18T11:02:01.462Z,3.53
2022-08-18T11:04:42.381Z,3.13
2022-08-18T11:07:14.627Z,3.15
2022-08-18T11:10:04.490Z,2.35
2022-08-18T11:13:02.903Z,2.90
2022-08-18T11:16:22.857Z,2.63
2022-08-18T11:19:03.577Z,2.60
2022-08-18T11:21:52.266Z,2.78
2022-08-18T11:24:28.641Z,2.72
2022-08-18T11:27:27.604Z,2.38
2022-08-18T11:29:59.645Z,2.67
2022-08-18T11:35:35.582Z,2.67
2022-08-18T11:38:12.503Z,2.83
2022-08-18T11:41:11.397Z,2.90
2022-08-18T11:43:42.368Z,2.90
2022-08-18T11:46:24.094Z,3.30
2022-08-18T11:48:56.916Z,3.03
2022-08-18T11:51:28.591Z,2.90
2022-08-18T11:54:05.072Z,2.85
2022-08-18T11:56:38.025Z,2.63
2022-08-18T11:59:25.597Z,2.70
2022-08-18T12:02:18.355Z,2.97
2022-08-18T12:04:57.550Z,2.70
2022-08-18T12:07:51.145Z,2.25
2022-08-18T12:10:29.353Z,3.00
2022-08-18T12:13:01.454Z,3.30
2022-08-18T12:15:44.044Z,3.10
2022-08-18T12:18:25.893Z,3.10
2022-08-18T12:20:58.696Z,3.30
2022-08-18T12:23:26.145Z,2.90
2022-08-18T12:25:53.049Z,2.50
2022-08-18T12:28:22.292Z,3.10
2022-08-18T12:30:56.266Z,2.97
2022-08-18T12:36:13.659Z,2.83
2022-08-18T12:38:44.117Z,2.88
2022-08-18T12:41:23.566Z,2.50
2022-08-18T12:43:58.414Z,2.60
2022-08-18T12:46:26.682Z,2.75
2022-08-18T12:48:53.828Z,2.70
2022-08-18T12:51:24.898Z,2.58
2022-08-18T12:53:59.950Z,2.50
2022-08-18T12:56:31.053Z,2.83
2022-08-18T12:59:04.786Z,2.50
2022-08-18T13:01:34.100Z,2.88
2022-08-18T13:04:13.280Z,2.70
2022-08-18T13:06:59.549Z,2.50
2022-08-18T13:09:34.779Z,2.80
2022-08-18T13:12:17.210Z,2.50
2022-08-18T13:14:45.408Z,2.70
2022-08-18T13:17:30.334Z,2.67
2022-08-18T13:20:09.923Z,3.50
2022-08-18T13:22:40.201Z,3.17
2022-08-18T13:25:12.296Z,3.95
2022-08-18T13:30:31.249Z,3.40
2022-08-18T13:33:05.324Z,3.20
2022-08-18T13:35:54.581Z,3.90
2022-08-18T13:38:25.699Z,3.97
2022-08-18T13:40:59.172Z,4.60
2022-08-18T13:43:41.976Z,4.35
2022-08-18T13:46:12.312Z,4.47
2022-08-18T13:48:41.592Z,3.40
2022-08-18T13:51:14.269Z,3.95
